FIN7DX EFIV-EFHK
Flight info
| Callsign | FIN7DX |
|---|---|
| Flight time | 1h 22m |
| Altitude | 37000 |
| Route | SOTIT DCT ROTKO DCT RENVI Y86 LUSEP |
| Aircraft | A320/M-SDE3FGHIRWY/LB1 |
Departure
| Time | 2026-05-04 10:23 |
|---|---|
| Airport | Ivalo Airport (EFIV) |
Arrival
| Time | 2026-05-04 11:45 |
|---|---|
| Airport | Helsinki Vantaa Airport (EFHK) |
| Time | Latitude | Longitude | Altitude | Speed | Heading |
|---|---|---|---|---|---|
| 2026-05-04 10:00 | 68.60822 | 27.41682 | 476 ft | 0 kts | 169° |
| 2026-05-04 10:16 | 68.60828 | 27.41679 | 476 ft | 2 kts | 167° |
| 2026-05-04 10:16 | 68.60846 | 27.41662 | 470 ft | 3 kts | 140° |
| 2026-05-04 10:16 | 68.60858 | 27.41625 | 473 ft | 3 kts | 95° |
| 2026-05-04 10:17 | 68.60856 | 27.41583 | 471 ft | 2 kts | 50° |
| 2026-05-04 10:17 | 68.60852 | 27.41570 | 470 ft | 0 kts | 49° |
| 2026-05-04 10:19 | 68.60854 | 27.41578 | 470 ft | 2 kts | 49° |
| 2026-05-04 10:19 | 68.60872 | 27.41633 | 468 ft | 7 kts | 49° |
| 2026-05-04 10:20 | 68.60927 | 27.41731 | 469 ft | 12 kts | 359° |
| 2026-05-04 10:20 | 68.61006 | 27.41559 | 473 ft | 17 kts | 317° |
| 2026-05-04 10:20 | 68.61114 | 27.41654 | 471 ft | 21 kts | 44° |
| 2026-05-04 10:20 | 68.61221 | 27.41998 | 474 ft | 26 kts | 48° |
| 2026-05-04 10:21 | 68.61359 | 27.42394 | 471 ft | 31 kts | 45° |
| 2026-05-04 10:21 | 68.61435 | 27.42681 | 476 ft | 15 kts | 93° |
| 2026-05-04 10:21 | 68.61459 | 27.42707 | 476 ft | 6 kts | 268° |
| 2026-05-04 10:21 | 68.61429 | 27.42600 | 476 ft | 0 kts | 224° |
| 2026-05-04 10:22 | 68.61419 | 27.42571 | 468 ft | 13 kts | 226° |
| 2026-05-04 10:22 | 68.61200 | 27.41925 | 475 ft | 80 kts | 227° |
| 2026-05-04 10:22 | 68.60688 | 27.40423 | 479 ft | 133 kts | 227° |
| 2026-05-04 10:23 | 68.60068 | 27.38512 | 994 ft | 135 kts | 229° |
| 2026-05-04 10:23 | 68.59432 | 27.36571 | 1675 ft | 140 kts | 229° |
| 2026-05-04 10:25 | 68.53864 | 27.20071 | 5982 ft | 176 kts | 229° |
| 2026-05-04 10:25 | 68.53025 | 27.17652 | 6645 ft | 175 kts | 228° |
| 2026-05-04 10:25 | 68.52181 | 27.15225 | 7184 ft | 179 kts | 229° |
| 2026-05-04 10:25 | 68.51294 | 27.12754 | 7732 ft | 185 kts | 222° |
| 2026-05-04 10:26 | 68.50140 | 27.11195 | 8389 ft | 191 kts | 197° |
| 2026-05-04 10:26 | 68.48729 | 27.11177 | 8624 ft | 221 kts | 174° |
| 2026-05-04 10:26 | 68.47112 | 27.11942 | 8855 ft | 249 kts | 176° |
| 2026-05-04 10:26 | 68.45320 | 27.12583 | 9284 ft | 269 kts | 177° |
| 2026-05-04 10:27 | 68.43425 | 27.13181 | 9914 ft | 282 kts | 177° |
| 2026-05-04 10:27 | 68.41395 | 27.13795 | 10213 ft | 305 kts | 177° |
| 2026-05-04 10:27 | 68.39229 | 27.14452 | 10726 ft | 318 kts | 177° |
| 2026-05-04 10:27 | 68.37008 | 27.15146 | 11479 ft | 323 kts | 176° |
| 2026-05-04 10:28 | 68.34763 | 27.15869 | 12286 ft | 328 kts | 176° |
| 2026-05-04 10:28 | 68.32485 | 27.16605 | 13091 ft | 332 kts | 176° |
| 2026-05-04 10:28 | 68.30174 | 27.17348 | 13827 ft | 336 kts | 177° |
| 2026-05-04 10:28 | 68.27848 | 27.18093 | 14522 ft | 339 kts | 176° |
| 2026-05-04 10:29 | 68.25489 | 27.18830 | 15197 ft | 343 kts | 179° |
| 2026-05-04 10:29 | 68.23119 | 27.18533 | 15851 ft | 341 kts | 194° |
| 2026-05-04 10:29 | 68.20860 | 27.16647 | 16513 ft | 341 kts | 204° |
| 2026-05-04 10:29 | 68.18630 | 27.14347 | 17194 ft | 344 kts | 204° |
| 2026-05-04 10:30 | 68.16382 | 27.12039 | 17872 ft | 348 kts | 204° |
| 2026-05-04 10:30 | 68.14133 | 27.09749 | 18459 ft | 351 kts | 205° |
| 2026-05-04 10:30 | 68.11842 | 27.07422 | 19088 ft | 353 kts | 205° |
| 2026-05-04 10:30 | 68.09538 | 27.05085 | 19721 ft | 355 kts | 205° |
| 2026-05-04 10:31 | 68.07221 | 27.02738 | 20354 ft | 357 kts | 205° |
| 2026-05-04 10:31 | 68.04898 | 27.00394 | 20979 ft | 358 kts | 206° |
| 2026-05-04 10:32 | 67.90659 | 26.86177 | 24291 ft | 371 kts | 206° |
| 2026-05-04 10:33 | 67.88242 | 26.83774 | 24708 ft | 373 kts | 206° |
| 2026-05-04 10:33 | 67.85799 | 26.81355 | 25130 ft | 376 kts | 206° |
| 2026-05-04 10:33 | 67.83341 | 26.78928 | 25532 ft | 378 kts | 206° |
| 2026-05-04 10:33 | 67.80872 | 26.76492 | 25929 ft | 381 kts | 206° |
| 2026-05-04 10:34 | 67.78378 | 26.74040 | 26318 ft | 383 kts | 206° |
| 2026-05-04 10:34 | 67.75873 | 26.71584 | 26710 ft | 385 kts | 206° |
| 2026-05-04 10:34 | 67.73353 | 26.69116 | 27084 ft | 388 kts | 206° |
| 2026-05-04 10:34 | 67.70819 | 26.66645 | 27459 ft | 390 kts | 206° |
| 2026-05-04 10:35 | 67.68266 | 26.64158 | 27836 ft | 392 kts | 206° |
| 2026-05-04 10:35 | 67.65697 | 26.61661 | 28210 ft | 395 kts | 206° |
| 2026-05-04 10:35 | 67.63113 | 26.59148 | 28554 ft | 397 kts | 206° |
| 2026-05-04 10:35 | 67.60519 | 26.56634 | 28898 ft | 399 kts | 206° |
| 2026-05-04 10:36 | 67.57908 | 26.54113 | 29249 ft | 401 kts | 206° |
| 2026-05-04 10:36 | 67.55279 | 26.51576 | 29584 ft | 403 kts | 206° |
| 2026-05-04 10:36 | 67.52639 | 26.49035 | 29860 ft | 405 kts | 206° |
| 2026-05-04 10:36 | 67.50021 | 26.46529 | 30097 ft | 408 kts | 206° |
| 2026-05-04 10:37 | 67.47347 | 26.43978 | 30328 ft | 410 kts | 206° |
| 2026-05-04 10:37 | 67.44659 | 26.41421 | 30548 ft | 413 kts | 206° |
| 2026-05-04 10:37 | 67.41956 | 26.38862 | 30755 ft | 415 kts | 206° |
| 2026-05-04 10:37 | 67.39236 | 26.36293 | 30972 ft | 417 kts | 206° |
| 2026-05-04 10:39 | 67.22777 | 26.20779 | 32632 ft | 421 kts | 205° |
| 2026-05-04 10:39 | 67.20018 | 26.18207 | 32902 ft | 422 kts | 205° |
| 2026-05-04 10:39 | 67.17257 | 26.15636 | 33184 ft | 423 kts | 205° |
| 2026-05-04 10:40 | 67.14485 | 26.13064 | 33461 ft | 423 kts | 205° |
| 2026-05-04 10:40 | 67.11708 | 26.10495 | 33730 ft | 424 kts | 205° |
| 2026-05-04 10:40 | 67.08932 | 26.07931 | 33957 ft | 425 kts | 205° |
| 2026-05-04 10:40 | 67.06152 | 26.05369 | 34191 ft | 425 kts | 205° |
| 2026-05-04 10:41 | 67.03365 | 26.02802 | 34422 ft | 426 kts | 205° |
| 2026-05-04 10:41 | 67.00575 | 26.00242 | 34648 ft | 426 kts | 205° |
| 2026-05-04 10:41 | 66.97777 | 25.97671 | 34867 ft | 427 kts | 205° |
| 2026-05-04 10:41 | 66.94921 | 25.95513 | 35080 ft | 432 kts | 197° |
| 2026-05-04 10:42 | 66.91963 | 25.94028 | 35280 ft | 433 kts | 196° |
| 2026-05-04 10:42 | 66.89005 | 25.92562 | 35474 ft | 434 kts | 196° |
| 2026-05-04 10:42 | 66.86039 | 25.91094 | 35666 ft | 434 kts | 196° |
| 2026-05-04 10:42 | 66.83075 | 25.89623 | 35856 ft | 434 kts | 197° |
| 2026-05-04 10:43 | 66.80110 | 25.88148 | 36044 ft | 434 kts | 196° |
| 2026-05-04 10:44 | 66.59401 | 25.77909 | 36638 ft | 433 kts | 197° |
| 2026-05-04 10:45 | 66.56447 | 25.76472 | 36650 ft | 433 kts | 197° |
| 2026-05-04 10:45 | 66.50533 | 25.73618 | 36643 ft | 433 kts | 197° |
| 2026-05-04 10:46 | 66.44618 | 25.70774 | 36648 ft | 432 kts | 197° |
| 2026-05-04 10:46 | 66.38709 | 25.67935 | 36651 ft | 432 kts | 197° |
| 2026-05-04 10:47 | 66.32799 | 25.65102 | 36656 ft | 432 kts | 197° |
| 2026-05-04 10:47 | 66.26894 | 25.62262 | 36669 ft | 432 kts | 197° |
| 2026-05-04 10:49 | 66.03132 | 25.52891 | 36690 ft | 440 kts | 188° |
| 2026-05-04 10:50 | 65.97014 | 25.52534 | 36688 ft | 440 kts | 188° |
| 2026-05-04 10:52 | 65.72543 | 25.51055 | 36695 ft | 440 kts | 188° |
| 2026-05-04 10:52 | 65.66425 | 25.50683 | 36693 ft | 440 kts | 188° |
| 2026-05-04 10:54 | 65.41970 | 25.49264 | 36689 ft | 439 kts | 188° |
| 2026-05-04 10:56 | 65.17559 | 25.47991 | 36680 ft | 439 kts | 188° |
| 2026-05-04 10:57 | 65.11446 | 25.47674 | 36672 ft | 439 kts | 188° |
| 2026-05-04 10:57 | 65.05351 | 25.47354 | 36672 ft | 439 kts | 188° |
| 2026-05-04 10:58 | 64.99245 | 25.47040 | 36673 ft | 439 kts | 188° |
| 2026-05-04 10:58 | 64.93140 | 25.46731 | 36674 ft | 438 kts | 188° |
| 2026-05-04 10:59 | 64.87048 | 25.46419 | 36675 ft | 438 kts | 188° |
| 2026-05-04 10:59 | 64.81984 | 25.46153 | 36673 ft | 438 kts | 188° |
| 2026-05-04 11:00 | 64.75887 | 25.45838 | 36669 ft | 438 kts | 188° |
| 2026-05-04 11:02 | 64.51532 | 25.44631 | 36668 ft | 438 kts | 188° |
| 2026-05-04 11:05 | 64.05990 | 25.42426 | 36641 ft | 437 kts | 188° |
| 2026-05-04 11:06 | 63.99917 | 25.42151 | 36641 ft | 437 kts | 188° |
| 2026-05-04 11:06 | 63.93830 | 25.41863 | 36639 ft | 437 kts | 188° |
| 2026-05-04 11:10 | 63.51335 | 25.39878 | 36648 ft | 436 kts | 188° |
| 2026-05-04 11:12 | 63.27064 | 25.38759 | 36647 ft | 436 kts | 188° |
| 2026-05-04 11:12 | 63.21004 | 25.38483 | 36650 ft | 435 kts | 188° |
| 2026-05-04 11:13 | 63.14953 | 25.38210 | 36659 ft | 435 kts | 188° |
| 2026-05-04 11:13 | 63.08938 | 25.37931 | 36654 ft | 435 kts | 188° |
| 2026-05-04 11:14 | 63.02889 | 25.37682 | 36656 ft | 435 kts | 188° |
| 2026-05-04 11:16 | 62.78742 | 25.36618 | 36661 ft | 433 kts | 188° |
| 2026-05-04 11:16 | 62.72706 | 25.36348 | 36668 ft | 433 kts | 188° |
| 2026-05-04 11:17 | 62.66688 | 25.36071 | 36667 ft | 433 kts | 188° |
| 2026-05-04 11:19 | 62.42635 | 25.35043 | 36675 ft | 432 kts | 188° |
| 2026-05-04 11:19 | 62.36671 | 25.34784 | 36673 ft | 431 kts | 188° |
| 2026-05-04 11:20 | 62.30673 | 25.34542 | 36673 ft | 431 kts | 188° |
| 2026-05-04 11:20 | 62.24667 | 25.34290 | 36665 ft | 432 kts | 188° |
| 2026-05-04 11:22 | 62.03310 | 25.33413 | 31925 ft | 430 kts | 189° |
| 2026-05-04 11:22 | 62.00344 | 25.33311 | 31330 ft | 424 kts | 190° |
| 2026-05-04 11:23 | 61.97409 | 25.33198 | 30751 ft | 419 kts | 190° |
| 2026-05-04 11:23 | 61.94517 | 25.33078 | 30207 ft | 414 kts | 191° |
| 2026-05-04 11:24 | 61.77768 | 25.32351 | 26806 ft | 389 kts | 190° |
| 2026-05-04 11:25 | 61.75082 | 25.32242 | 26379 ft | 382 kts | 190° |
| 2026-05-04 11:25 | 61.72444 | 25.32146 | 25946 ft | 376 kts | 190° |
| 2026-05-04 11:25 | 61.69844 | 25.32047 | 25504 ft | 371 kts | 190° |
| 2026-05-04 11:26 | 61.64735 | 25.31841 | 24649 ft | 363 kts | 190° |
| 2026-05-04 11:27 | 61.47578 | 25.31137 | 21482 ft | 341 kts | 190° |
| 2026-05-04 11:28 | 61.45217 | 25.31039 | 21052 ft | 338 kts | 190° |
| 2026-05-04 11:28 | 61.42873 | 25.30941 | 20625 ft | 335 kts | 189° |
| 2026-05-04 11:28 | 61.40547 | 25.30849 | 20195 ft | 333 kts | 189° |
| 2026-05-04 11:28 | 61.38241 | 25.30761 | 19766 ft | 330 kts | 189° |
| 2026-05-04 11:29 | 61.35954 | 25.30671 | 19351 ft | 328 kts | 189° |
| 2026-05-04 11:29 | 61.33677 | 25.30582 | 18938 ft | 326 kts | 189° |
| 2026-05-04 11:29 | 61.31414 | 25.30493 | 18528 ft | 324 kts | 189° |
| 2026-05-04 11:29 | 61.29158 | 25.30400 | 18119 ft | 324 kts | 189° |
| 2026-05-04 11:31 | 61.13740 | 25.29791 | 15329 ft | 311 kts | 188° |
| 2026-05-04 11:33 | 60.98648 | 25.29188 | 12594 ft | 308 kts | 187° |
| 2026-05-04 11:33 | 60.96508 | 25.29109 | 12196 ft | 306 kts | 187° |
| 2026-05-04 11:33 | 60.94382 | 25.29032 | 11812 ft | 305 kts | 187° |
| 2026-05-04 11:34 | 60.92267 | 25.28956 | 11416 ft | 303 kts | 187° |
| 2026-05-04 11:34 | 60.90173 | 25.28877 | 11025 ft | 300 kts | 187° |
| 2026-05-04 11:34 | 60.88116 | 25.28795 | 10637 ft | 298 kts | 187° |
| 2026-05-04 11:34 | 60.86049 | 25.28711 | 10236 ft | 296 kts | 187° |
| 2026-05-04 11:35 | 60.83994 | 25.28626 | 9836 ft | 294 kts | 186° |
| 2026-05-04 11:35 | 60.81978 | 25.28548 | 9660 ft | 285 kts | 186° |
| 2026-05-04 11:35 | 60.80011 | 25.28477 | 9297 ft | 282 kts | 186° |
| 2026-05-04 11:35 | 60.78050 | 25.28404 | 8884 ft | 280 kts | 186° |
| 2026-05-04 11:36 | 60.76098 | 25.28327 | 8395 ft | 281 kts | 186° |
| 2026-05-04 11:36 | 60.74158 | 25.28251 | 8067 ft | 277 kts | 186° |
| 2026-05-04 11:36 | 60.72236 | 25.28176 | 7634 ft | 276 kts | 185° |
| 2026-05-04 11:36 | 60.70323 | 25.28103 | 7231 ft | 274 kts | 185° |
| 2026-05-04 11:37 | 60.68420 | 25.28031 | 6826 ft | 273 kts | 185° |
| 2026-05-04 11:37 | 60.66527 | 25.27958 | 6429 ft | 271 kts | 184° |
| 2026-05-04 11:37 | 60.64651 | 25.27888 | 6028 ft | 269 kts | 184° |
| 2026-05-04 11:37 | 60.62785 | 25.27816 | 5585 ft | 268 kts | 184° |
| 2026-05-04 11:38 | 60.60922 | 25.27746 | 5124 ft | 267 kts | 184° |
| 2026-05-04 11:38 | 60.59067 | 25.27675 | 4691 ft | 266 kts | 183° |
| 2026-05-04 11:38 | 60.57227 | 25.27606 | 4160 ft | 264 kts | 183° |
| 2026-05-04 11:38 | 60.55414 | 25.27535 | 3655 ft | 254 kts | 183° |
| 2026-05-04 11:39 | 60.53736 | 25.27475 | 3483 ft | 234 kts | 183° |
| 2026-05-04 11:39 | 60.52138 | 25.27422 | 3371 ft | 221 kts | 183° |
| 2026-05-04 11:40 | 60.44506 | 25.23248 | 3028 ft | 168 kts | 229° |
| 2026-05-04 11:41 | 60.43736 | 25.21535 | 3007 ft | 163 kts | 229° |
| 2026-05-04 11:41 | 60.42976 | 25.19857 | 2970 ft | 161 kts | 229° |
| 2026-05-04 11:41 | 60.42221 | 25.18195 | 2814 ft | 161 kts | 229° |
| 2026-05-04 11:41 | 60.41481 | 25.16557 | 2621 ft | 154 kts | 229° |
| 2026-05-04 11:42 | 60.40821 | 25.15094 | 2452 ft | 142 kts | 230° |
| 2026-05-04 11:42 | 60.40170 | 25.13648 | 2261 ft | 137 kts | 229° |
| 2026-05-04 11:42 | 60.39532 | 25.12228 | 2075 ft | 135 kts | 229° |
| 2026-05-04 11:42 | 60.38901 | 25.10827 | 1890 ft | 135 kts | 230° |
| 2026-05-04 11:43 | 60.38268 | 25.09422 | 1709 ft | 137 kts | 230° |
| 2026-05-04 11:43 | 60.37610 | 25.07957 | 1522 ft | 144 kts | 229° |
| 2026-05-04 11:43 | 60.36935 | 25.06429 | 1276 ft | 146 kts | 230° |
| 2026-05-04 11:43 | 60.36262 | 25.04944 | 1116 ft | 143 kts | 229° |
| 2026-05-04 11:44 | 60.35577 | 25.03469 | 894 ft | 141 kts | 229° |
| 2026-05-04 11:44 | 60.34935 | 25.02032 | 729 ft | 138 kts | 230° |
| 2026-05-04 11:44 | 60.34290 | 25.00587 | 571 ft | 136 kts | 229° |
| 2026-05-04 11:44 | 60.33665 | 24.99210 | 403 ft | 134 kts | 230° |
| 2026-05-04 11:45 | 60.33029 | 24.97830 | 219 ft | 133 kts | 230° |
| 2026-05-04 11:45 | 60.32453 | 24.96556 | 175 ft | 105 kts | 228° |
| 2026-05-04 11:45 | 60.32076 | 24.95723 | 174 ft | 54 kts | 228° |
| 2026-05-04 11:45 | 60.31886 | 24.95358 | 175 ft | 35 kts | 212° |
| 2026-05-04 11:46 | 60.31700 | 24.95205 | 172 ft | 12 kts | 194° |
| 2026-05-04 11:46 | 60.31637 | 24.95268 | 170 ft | 11 kts | 96° |
| 2026-05-04 11:46 | 60.31671 | 24.95385 | 171 ft | 9 kts | 47° |
| 2026-05-04 11:46 | 60.31717 | 24.95485 | 173 ft | 15 kts | 48° |
| 2026-05-04 11:47 | 60.31821 | 24.95718 | 171 ft | 21 kts | 47° |
| 2026-05-04 11:47 | 60.31914 | 24.95924 | 172 ft | 13 kts | 50° |
| 2026-05-04 11:47 | 60.31890 | 24.96101 | 170 ft | 16 kts | 137° |
| 2026-05-04 11:47 | 60.31863 | 24.96312 | 167 ft | 16 kts | 64° |
| 2026-05-04 11:48 | 60.31919 | 24.96446 | 167 ft | 10 kts | 45° |
| 2026-05-04 11:48 | 60.31962 | 24.96546 | 167 ft | 9 kts | 50° |
| 2026-05-04 11:48 | 60.31975 | 24.96624 | 167 ft | 3 kts | 130° |
| 2026-05-04 11:48 | 60.31968 | 24.96639 | 167 ft | 1 kts | 131° |
| 2026-05-04 11:49 | 60.31961 | 24.96652 | 167 ft | 2 kts | 137° |
| 2026-05-04 11:49 | 60.31951 | 24.96668 | 167 ft | 1 kts | 140° |
| 2026-05-04 11:49 | 60.31946 | 24.96678 | 167 ft | 0 kts | 139° |
| 2026-05-04 11:49 | 60.31945 | 24.96680 | 167 ft | 0 kts | 139° |